Time;durP1;ratioP1;P1;durP2;ratioP2;P2;SDS_P1;SDS_P2;PMS_P1;PMS_P2;Temp;Humidity;BMP_temperature;BMP_pressure;BME280_temperature;BME280_humidity;BME280_pressure;Samples;Min_cycle;Max_cycle;Signal;HPM_P1;HPM_P2
2021/08/20 00:00:11;;;;;;;;;;;;;;;14.99;87.67;98126.17;1746812;82;20542;-74
2021/08/20 00:02:39;;;;;;;;;;;;;;;14.98;87.98;98121.83;1742754;81;20115;-74
2021/08/20 00:05:05;;;;;;;;;;;;;;;15.03;87.11;98127.97;1739192;82;20138;-78
2021/08/20 00:07:31;;;;;;;;;;;;;;;15.07;87.94;98127.63;1739034;81;20127;-78
2021/08/20 00:09:59;;;;;;;;;;;;;;;15.06;86.91;98126.02;1739241;81;21109;-75
2021/08/20 00:12:26;;;;;;;;;;;;;;;15.02;86.48;98121.45;1738924;81;20131;-74
2021/08/20 00:14:52;;;;;;;;;;;;;;;14.94;87.35;98125.70;1738900;82;20446;-74
2021/08/20 00:17:18;;;;;;;;;;;;;;;14.91;87.45;98121.68;1738982;82;20764;-78
2021/08/20 00:19:43;;;;;;;;;;;;;;;14.95;87.48;98118.61;1738871;81;20155;-74
2021/08/20 00:22:09;;;;;;;;;;;;;;;14.98;87.89;98124.56;1739183;82;21021;-74
2021/08/20 00:24:35;;;;;;;;;;;;;;;14.96;87.72;98124.88;1738894;82;20128;-75
2021/08/20 00:27:01;;;;;;;;;;;;;;;14.92;88.62;98121.92;1738970;82;20198;-75
2021/08/20 00:29:27;;;;;;;;;;;;;;;14.97;87.17;98122.39;1738978;82;20146;-75
2021/08/20 00:31:53;;;;;;;;;;;;;;;14.97;86.53;98129.77;1739186;82;20233;-78
2021/08/20 00:34:18;;;;;;;;;;;;;;;14.93;88.49;98124.91;1738936;81;21183;-78
2021/08/20 00:36:45;;;;;;;;;;;;;;;14.91;88.87;98123.60;1739046;82;20193;-78
2021/08/20 00:39:12;;;;;;;;;;;;;;;14.93;88.41;98120.00;1739057;82;20143;-78
2021/08/20 00:41:42;;;;;;;;;;;;;;;14.93;88.44;98123.54;1739037;81;20443;-78
2021/08/20 00:44:08;;;;;;;;;;;;;;;14.94;88.12;98127.08;1739002;81;20135;-74
2021/08/20 00:46:34;;;;;;;;;;;;;;;14.92;87.70;98121.92;1739234;82;21089;-78
2021/08/20 00:49:00;;;;;;;;;;;;;;;14.91;86.52;98120.31;1738938;81;20190;-75
2021/08/20 00:51:27;;;;;;;;;;;;;;;14.91;86.46;98120.31;1739142;82;20220;-74
2021/08/20 00:53:53;;;;;;;;;;;;;;;14.91;87.29;98126.33;1738838;82;20195;-78
2021/08/20 00:56:19;;;;;;;;;;;;;;;14.93;86.72;98122.73;1741851;82;20132;-78
2021/08/20 00:58:45;;;;;;;;;;;;;;;14.91;87.75;98124.97;1747558;82;21095;-78
2021/08/20 01:01:11;;;;;;;;;;;;;;;14.95;84.79;98122.70;1749349;81;20155;-75
2021/08/20 01:03:37;;;;;;;;;;;;;;;14.97;85.05;98129.77;1748372;82;20165;-74
2021/08/20 01:06:03;;;;;;;;;;;;;;;14.91;87.95;98123.60;1739020;82;20134;-74
2021/08/20 01:08:29;;;;;;;;;;;;;;;14.91;87.79;98123.05;1738941;81;20136;-74
2021/08/20 01:10:56;;;;;;;;;;;;;;;14.94;87.39;98127.08;1739030;82;21120;-78
2021/08/20 01:13:22;;;;;;;;;;;;;;;14.93;85.68;98123.54;1738812;82;20532;-78
2021/08/20 01:15:48;;;;;;;;;;;;;;;14.91;86.26;98119.51;1738997;82;20179;-75
2021/08/20 01:18:23;;;;;;;;;;;;;;;14.93;86.29;98118.64;1738978;81;20167;-79
2021/08/20 01:20:50;;;;;;;;;;;;;;;14.92;86.84;98118.39;1739003;81;20391;-74
2021/08/20 01:23:17;;;;;;;;;;;;;;;14.95;88.04;98120.50;1738959;81;21855;-78
2021/08/20 01:25:44;;;;;;;;;;;;;;;14.97;87.86;98117.49;1738993;82;20154;-74
2021/08/20 01:28:10;;;;;;;;;;;;;;;14.98;86.71;98119.10;1738937;82;20467;-78
2021/08/20 01:30:36;;;;;;;;;;;;;;;14.96;87.03;98113.95;1739174;82;20765;-74
2021/08/20 01:33:02;;;;;;;;;;;;;;;14.95;87.29;98115.88;1738909;82;20194;-78
2021/08/20 01:35:28;;;;;;;;;;;;;;;14.95;87.43;98117.77;1739019;82;21056;-78
2021/08/20 01:37:53;;;;;;;;;;;;;;;14.92;89.12;98118.39;1738883;82;20161;-78
2021/08/20 01:40:19;;;;;;;;;;;;;;;14.89;89.56;98114.36;1739148;82;20221;-74
2021/08/20 01:42:45;;;;;;;;;;;;;;;14.86;89.74;98111.42;1738969;82;20857;-78
2021/08/20 01:45:11;;;;;;;;;;;;;;;14.90;89.58;98119.27;1739039;82;20154;-79
2021/08/20 01:47:37;;;;;;;;;;;;;;;14.92;89.49;98112.94;1738888;82;21080;-78
2021/08/20 01:50:05;;;;;;;;;;;;;;;14.89;89.82;98114.36;1739088;81;20185;-78
2021/08/20 01:52:31;;;;;;;;;;;;;;;14.88;89.37;98114.67;1738416;82;20402;-78
2021/08/20 01:54:57;;;;;;;;;;;;;;;14.90;89.20;98111.88;1739084;82;20166;-78
2021/08/20 01:57:22;;;;;;;;;;;;;;;14.88;87.76;98111.95;1745106;81;20765;-78
2021/08/20 01:59:48;;;;;;;;;;;;;;;14.87;87.66;98107.61;1749176;81;21982;-78
2021/08/20 02:02:14;;;;;;;;;;;;;;;14.87;89.29;98110.34;1749006;81;20173;-78
2021/08/20 02:04:39;;;;;;;;;;;;;;;14.84;90.18;98104.11;1749138;81;20228;-75
2021/08/20 02:07:05;;;;;;;;;;;;;;;14.87;89.00;98104.88;1747876;81;20221;-74
2021/08/20 02:09:31;;;;;;;;;;;;;;;14.86;89.66;98105.41;1739085;81;20150;-74
2021/08/20 02:11:57;;;;;;;;;;;;;;;14.86;88.99;98104.05;1739220;82;21096;-74
2021/08/20 02:14:22;;;;;;;;;;;;;;;14.91;88.79;98111.33;1738963;82;20714;-79
2021/08/20 02:16:48;;;;;;;;;;;;;;;14.95;87.51;98110.42;1739203;81;20169;-74
2021/08/20 02:19:14;;;;;;;;;;;;;;;14.97;87.00;98101.92;1739138;82;20218;-74
2021/08/20 02:21:40;;;;;;;;;;;;;;;14.97;85.78;98104.66;1739390;81;20134;-74
2021/08/20 02:24:05;;;;;;;;;;;;;;;14.92;87.07;98104.19;1738936;82;21140;-74
2021/08/20 02:26:31;;;;;;;;;;;;;;;14.92;86.17;98102.83;1739119;82;20169;-74
2021/08/20 02:28:57;;;;;;;;;;;;;;;14.89;87.38;98102.09;1739025;82;20269;-75
2021/08/20 02:31:22;;;;;;;;;;;;;;;14.90;85.63;98101.53;1739308;82;20883;-74
2021/08/20 02:33:49;;;;;;;;;;;;;;;14.85;86.42;98100.27;1738933;82;20166;-78
2021/08/20 02:36:15;;;;;;;;;;;;;;;14.85;85.17;98096.98;1739209;82;21049;-74
2021/08/20 02:38:41;;;;;;;;;;;;;;;14.86;85.07;98098.59;1738963;81;20148;-78
2021/08/20 02:41:07;;;;;;;;;;;;;;;14.86;85.66;98103.23;1739270;82;20208;-78
2021/08/20 02:43:32;;;;;;;;;;;;;;;14.86;85.94;98101.31;1738894;81;20177;-78
2021/08/20 02:45:58;;;;;;;;;;;;;;;14.86;85.46;98106.77;1739139;82;20194;-78
2021/08/20 02:48:24;;;;;;;;;;;;;;;14.91;84.89;98107.23;1739021;81;21793;-74
2021/08/20 02:50:50;;;;;;;;;;;;;;;14.85;85.15;98106.52;1718117;82;20427;-74
2021/08/20 02:53:16;;;;;;;;;;;;;;;14.80;85.20;98110.73;1738989;82;20190;-74
2021/08/20 02:55:41;;;;;;;;;;;;;;;14.81;85.83;98111.55;1739135;82;20553;-74
2021/08/20 02:58:07;;;;;;;;;;;;;;;14.78;87.79;98110.22;1746355;81;20165;-75
2021/08/20 03:00:33;;;;;;;;;;;;;;;14.81;87.43;98106.09;1747951;82;21112;-78
2021/08/20 03:02:59;;;;;;;;;;;;;;;14.87;85.61;98102.16;1745009;82;20166;-78
2021/08/20 03:05:25;;;;;;;;;;;;;;;14.91;85.56;98101.78;1739277;82;20190;-78
2021/08/20 03:07:50;;;;;;;;;;;;;;;14.89;85.43;98105.38;1739116;81;20189;-74
2021/08/20 03:10:16;;;;;;;;;;;;;;;14.93;85.35;98108.53;1739195;82;20194;-74
2021/08/20 03:12:42;;;;;;;;;;;;;;;14.97;85.38;98114.20;1739082;82;21290;-74
2021/08/20 03:15:08;;;;;;;;;;;;;;;14.97;85.85;98114.77;1739056;82;20163;-78
2021/08/20 03:17:34;;;;;;;;;;;;;;;14.97;86.65;98110.11;1739009;82;20143;-78
2021/08/20 03:19:59;;;;;;;;;;;;;;;14.99;85.99;98116.06;1738949;82;20178;-74
2021/08/20 03:22:25;;;;;;;;;;;;;;;15.00;85.74;98107.32;1739104;82;20201;-78
2021/08/20 03:24:51;;;;;;;;;;;;;;;15.03;85.54;98107.50;1738950;81;21950;-78
2021/08/20 03:27:17;;;;;;;;;;;;;;;15.11;84.75;98107.34;1739143;82;20177;-78
2021/08/20 03:29:42;;;;;;;;;;;;;;;15.10;84.69;98107.09;1738936;81;20170;-78
2021/08/20 03:32:08;;;;;;;;;;;;;;;15.08;85.70;98109.33;1739198;82;20130;-75
2021/08/20 03:34:34;;;;;;;;;;;;;;;15.10;86.81;98102.44;1738906;81;20221;-78
2021/08/20 03:37:00;;;;;;;;;;;;;;;15.16;84.54;98107.23;1739230;82;21926;-78
2021/08/20 03:39:25;;;;;;;;;;;;;;;15.11;84.57;98112.23;1738780;82;20165;-74
2021/08/20 03:41:51;;;;;;;;;;;;;;;15.09;84.59;98109.58;1718280;82;20154;-74
2021/08/20 03:44:17;;;;;;;;;;;;;;;15.09;84.94;98113.66;1738909;81;20142;-74
2021/08/20 03:46:42;;;;;;;;;;;;;;;15.09;84.70;98119.93;1739256;82;20163;-78
2021/08/20 03:49:08;;;;;;;;;;;;;;;15.10;84.47;98120.73;1738967;81;21149;-74
2021/08/20 03:51:34;;;;;;;;;;;;;;;15.07;84.61;98122.72;1739218;81;20174;-77
2021/08/20 03:53:59;;;;;;;;;;;;;;;15.12;84.61;98118.50;1738974;82;20181;-74
2021/08/20 03:56:25;;;;;;;;;;;;;;;15.14;85.14;98122.56;1738876;81;20757;-78
2021/08/20 03:58:53;;;;;;;;;;;;;;;15.16;85.64;98117.59;1736580;82;20186;-74
2021/08/20 04:01:19;;;;;;;;;;;;;;;15.18;85.37;98122.18;1736687;82;21330;-78
2021/08/20 04:03:44;;;;;;;;;;;;;;;15.16;85.69;98116.23;1730958;82;20250;-74
2021/08/20 04:06:10;;;;;;;;;;;;;;;15.23;85.53;98126.73;1710820;83;20198;-78
2021/08/20 04:08:36;;;;;;;;;;;;;;;15.21;85.14;98122.12;1731001;83;20146;-74
2021/08/20 04:11:02;;;;;;;;;;;;;;;15.23;85.79;98121.27;1731114;83;20439;-74
2021/08/20 04:13:28;;;;;;;;;;;;;;;15.23;85.06;98124.00;1730941;83;21866;-78
2021/08/20 04:15:53;;;;;;;;;;;;;;;15.21;84.72;98123.48;1731035;83;20234;-74
2021/08/20 04:18:19;;;;;;;;;;;;;;;15.20;87.15;98127.33;1730918;83;20158;-78
2021/08/20 04:20:45;;;;;;;;;;;;;;;15.23;87.68;98132.19;1730817;83;20147;-78
2021/08/20 04:23:11;;;;;;;;;;;;;;;15.22;85.47;98123.20;1730921;83;20233;-78
2021/08/20 04:25:36;;;;;;;;;;;;;;;15.14;85.85;98128.58;1731086;82;21024;-78
2021/08/20 04:28:02;;;;;;;;;;;;;;;15.06;87.34;98130.66;1730817;83;20233;-78
2021/08/20 04:30:29;;;;;;;;;;;;;;;15.04;86.98;98125.52;1731071;83;20770;-78
2021/08/20 04:32:57;;;;;;;;;;;;;;;15.06;88.28;98125.20;1730967;82;20140;-74
2021/08/20 04:35:25;;;;;;;;;;;;;;;15.08;88.26;98125.70;1730644;83;20152;-74
2021/08/20 04:37:51;;;;;;;;;;;;;;;15.08;88.25;98125.70;1736374;82;21117;-78
2021/08/20 04:40:17;;;;;;;;;;;;;;;15.13;87.20;98130.50;1734732;82;20170;-74
2021/08/20 04:42:42;;;;;;;;;;;;;;;15.18;87.42;98126.83;1710491;83;20217;-74
2021/08/20 04:45:09;;;;;;;;;;;;;;;15.20;87.77;98129.50;1731046;83;20788;-74
2021/08/20 04:47:35;;;;;;;;;;;;;;;15.24;88.35;98132.44;1731052;83;20458;-78
2021/08/20 04:50:01;;;;;;;;;;;;;;;15.25;88.01;98132.69;1730952;83;21720;-78
2021/08/20 04:52:27;;;;;;;;;;;;;;;15.29;88.47;98128.21;1730880;83;20219;-78
2021/08/20 04:54:52;;;;;;;;;;;;;;;15.33;86.78;98127.86;1730778;83;20201;-78
2021/08/20 04:57:18;;;;;;;;;;;;;;;15.30;87.34;98130.41;1730903;82;20222;-78
2021/08/20 04:59:44;;;;;;;;;;;;;;;15.29;87.17;98128.21;1730793;83;20182;-74
2021/08/20 05:02:10;;;;;;;;;;;;;;;15.31;87.62;98128.73;1730950;82;22050;-78
2021/08/20 05:04:35;;;;;;;;;;;;;;;15.34;86.92;98132.20;1730646;82;20265;-78
2021/08/20 05:07:02;;;;;;;;;;;;;;;15.32;88.48;98134.44;1730967;82;20313;-78
2021/08/20 05:09:28;;;;;;;;;;;;;;;15.37;86.57;98133.50;1730805;82;20800;-78
2021/08/20 05:11:54;;;;;;;;;;;;;;;15.34;87.78;98139.03;1730995;83;20134;-74
2021/08/20 05:14:19;;;;;;;;;;;;;;;15.34;88.03;98141.76;1730821;82;21069;-75
2021/08/20 05:16:48;;;;;;;;;;;;;;;15.35;87.40;98139.84;1730664;82;20168;-75
2021/08/20 05:19:13;;;;;;;;;;;;;;;15.36;88.26;98133.25;1730740;83;20128;-74
2021/08/20 05:21:39;;;;;;;;;;;;;;;15.35;88.14;98138.47;1731077;82;20138;-74
2021/08/20 05:24:04;;;;;;;;;;;;;;;15.36;88.21;98138.16;1730725;82;20225;-78
2021/08/20 05:26:30;;;;;;;;;;;;;;;15.39;86.68;98138.12;1731018;82;21228;-78
2021/08/20 05:28:56;;;;;;;;;;;;;;;15.42;85.80;98138.30;1730765;83;20277;-74
2021/08/20 05:31:22;;;;;;;;;;;;;;;15.43;86.87;98137.18;1730815;83;20221;-77
2021/08/20 05:33:47;;;;;;;;;;;;;;;15.48;87.27;98137.08;1730842;83;20182;-74
2021/08/20 05:36:13;;;;;;;;;;;;;;;15.56;86.73;98145.66;1730967;83;20214;-74
2021/08/20 05:38:39;;;;;;;;;;;;;;;15.65;87.22;98141.09;1730834;83;21122;-78
2021/08/20 05:41:05;;;;;;;;;;;;;;;15.69;87.75;98140.15;1731041;83;20181;-74
2021/08/20 05:43:31;;;;;;;;;;;;;;;15.75;86.75;98141.66;1730786;83;20257;-74
2021/08/20 05:45:57;;;;;;;;;;;;;;;15.83;86.47;98136.56;1731000;83;20140;-78
2021/08/20 05:48:23;;;;;;;;;;;;;;;15.83;87.08;98136.00;1730886;83;20144;-78
2021/08/20 05:50:49;;;;;;;;;;;;;;;15.89;86.87;98141.57;1731065;83;21150;-78
2021/08/20 05:53:15;;;;;;;;;;;;;;;15.95;85.96;98144.43;1730787;83;20185;-78
2021/08/20 05:55:40;;;;;;;;;;;;;;;15.95;86.29;98137.60;1731010;82;20652;-78
2021/08/20 05:58:06;;;;;;;;;;;;;;;16.03;86.81;98144.24;1740333;82;20149;-78
2021/08/20 06:00:33;;;;;;;;;;;;;;;16.10;86.77;98144.61;1749431;82;20174;-78
2021/08/20 06:02:58;;;;;;;;;;;;;;;16.17;86.40;98143.62;1740252;81;21098;-78
2021/08/20 06:05:24;;;;;;;;;;;;;;;16.27;86.01;98143.91;1738954;82;20169;-78
2021/08/20 06:07:50;;;;;;;;;;;;;;;16.36;85.49;98151.03;1739207;81;20189;-75
2021/08/20 06:10:16;;;;;;;;;;;;;;;16.39;85.25;98148.22;1738734;82;20197;-78
2021/08/20 06:12:42;;;;;;;;;;;;;;;16.42;85.30;98151.71;1739153;81;20158;-78
2021/08/20 06:15:09;;;;;;;;;;;;;;;16.46;84.92;98150.52;1738708;82;21150;-74
2021/08/20 06:17:34;;;;;;;;;;;;;;;16.53;85.06;98153.05;1739048;82;20162;-78
2021/08/20 06:20:00;;;;;;;;;;;;;;;16.60;84.80;98154.77;1738868;82;20197;-74
2021/08/20 06:22:26;;;;;;;;;;;;;;;16.67;84.88;98158.42;1738802;81;20795;-78
2021/08/20 06:24:51;;;;;;;;;;;;;;;16.71;84.56;98156.69;1738692;82;20312;-74
2021/08/20 06:27:17;;;;;;;;;;;;;;;16.76;83.90;98157.12;1739009;82;21142;-75
2021/08/20 06:29:43;;;;;;;;;;;;;;;16.80;83.96;98156.16;1738736;81;20173;-74
2021/08/20 06:32:09;;;;;;;;;;;;;;;16.87;83.72;98161.17;1739018;81;20178;-78
2021/08/20 06:34:34;;;;;;;;;;;;;;;16.96;83.40;98161.20;1738781;82;20154;-75
2021/08/20 06:37:00;;;;;;;;;;;;;;;16.93;82.91;98155.00;1739076;82;20142;-75
2021/08/20 06:39:26;;;;;;;;;;;;;;;16.95;83.09;98163.69;1738817;81;21050;-75
2021/08/20 06:41:52;;;;;;;;;;;;;;;16.98;82.72;98161.11;1738784;82;20197;-75
2021/08/20 06:44:17;;;;;;;;;;;;;;;17.05;82.74;98161.45;1738767;82;20186;-75
2021/08/20 06:46:43;;;;;;;;;;;;;;;17.14;82.88;98160.91;1739115;82;20174;-75
2021/08/20 06:49:09;;;;;;;;;;;;;;;17.20;82.37;98164.32;1739007;81;20591;-77
2021/08/20 06:51:36;;;;;;;;;;;;;;;17.25;81.90;98164.72;1739042;81;21978;-76
2021/08/20 06:54:03;;;;;;;;;;;;;;;17.34;81.28;98155.95;1738785;82;20195;-77
2021/08/20 06:56:29;;;;;;;;;;;;;;;17.37;80.99;98162.98;1718239;82;20140;-78
2021/08/20 06:58:57;;;;;;;;;;;;;;;17.46;80.75;98155.57;1745251;81;20466;-75
2021/08/20 07:01:22;;;;;;;;;;;;;;;17.56;80.80;98165.41;1747456;82;20162;-75
2021/08/20 07:03:48;;;;;;;;;;;;;;;17.62;80.07;98160.02;1747497;82;21105;-77
2021/08/20 07:06:18;;;;;;;;;;;;;;;17.68;80.49;98157.91;1747648;82;20170;-75
2021/08/20 07:08:49;;;;;;;;;;;;;;;17.78;80.27;98156.26;1747505;82;20136;-75
2021/08/20 07:11:16;;;;;;;;;;;;;;;17.89;79.94;98147.94;1748881;82;20407;-75
2021/08/20 07:13:42;;;;;;;;;;;;;;;17.98;79.72;98152.04;1742894;82;20171;-78
2021/08/20 07:16:08;;;;;;;;;;;;;;;18.08;79.57;98156.37;1739253;81;21024;-75
2021/08/20 07:18:36;;;;;;;;;;;;;;;18.13;79.33;98147.99;1738907;81;20228;-75
2021/08/20 07:21:03;;;;;;;;;;;;;;;18.19;78.95;98150.21;1739162;81;20451;-77
2021/08/20 07:23:29;;;;;;;;;;;;;;;18.36;78.76;98160.91;1738816;81;20430;-78
2021/08/20 07:25:54;;;;;;;;;;;;;;;18.48;78.84;98161.84;1739560;82;20261;-78
2021/08/20 07:28:20;;;;;;;;;;;;;;;18.58;77.76;98157.37;1738961;82;21887;-78
2021/08/20 07:30:46;;;;;;;;;;;;;;;18.70;77.73;98155.89;1739118;81;20161;-75
2021/08/20 07:33:13;;;;;;;;;;;;;;;18.88;77.73;98154.14;1739199;82;20174;-76
2021/08/20 07:35:38;;;;;;;;;;;;;;;19.03;75.56;98157.44;1738896;82;20404;-76
2021/08/20 07:38:04;;;;;;;;;;;;;;;19.17;75.76;98156.63;1739122;82;20158;-78
2021/08/20 07:40:30;;;;;;;;;;;;;;;19.34;74.82;98158.47;1738838;82;21141;-76
2021/08/20 07:42:56;;;;;;;;;;;;;;;19.53;75.07;98156.63;1739074;82;20185;-75
2021/08/20 07:45:21;;;;;;;;;;;;;;;19.68;74.16;98154.11;1738848;81;20272;-75
2021/08/20 07:47:50;;;;;;;;;;;;;;;19.79;73.01;98157.83;1739008;82;20169;-75
2021/08/20 07:50:16;;;;;;;;;;;;;;;19.93;74.91;98163.28;1738839;82;20400;-78
2021/08/20 07:52:42;;;;;;;;;;;;;;;19.97;73.25;98162.02;1718268;82;21752;-75
2021/08/20 07:55:08;;;;;;;;;;;;;;;20.09;73.84;98166.78;1738846;82;20213;-78
2021/08/20 07:57:46;;;;;;;;;;;;;;;20.10;73.36;98167.02;1738987;82;20431;-79
2021/08/20 08:00:12;;;;;;;;;;;;;;;20.08;71.91;98156.91;1738446;81;20139;-76
2021/08/20 08:02:38;;;;;;;;;;;;;;;19.95;71.56;98166.49;1731645;82;20160;-76
2021/08/20 08:05:04;;;;;;;;;;;;;;;20.06;71.19;98171.57;1730847;82;21136;-76
2021/08/20 08:07:30;;;;;;;;;;;;;;;20.01;70.03;98169.85;1730989;83;20184;-79
2021/08/20 08:09:55;;;;;;;;;;;;;;;20.05;71.79;98165.27;1730860;82;20280;-78
2021/08/20 08:12:21;;;;;;;;;;;;;;;20.18;72.09;98167.50;1730978;83;20621;-75
2021/08/20 08:14:47;;;;;;;;;;;;;;;20.38;70.33;98166.63;1730702;82;20186;-78
2021/08/20 08:17:13;;;;;;;;;;;;;;;20.32;69.51;98160.30;1731053;83;21120;-76
2021/08/20 08:19:38;;;;;;;;;;;;;;;20.44;70.20;98168.06;1730742;83;20178;-78
2021/08/20 08:22:04;;;;;;;;;;;;;;;20.55;68.74;98161.55;1730776;82;20185;-78
2021/08/20 08:24:30;;;;;;;;;;;;;;;20.63;69.49;98162.02;1730831;82;20801;-78
2021/08/20 08:26:56;;;;;;;;;;;;;;;20.82;67.40;98158.13;1730811;82;20250;-75
2021/08/20 08:29:22;;;;;;;;;;;;;;;20.74;65.42;98159.03;1730745;82;21179;-78
2021/08/20 08:31:47;;;;;;;;;;;;;;;20.93;66.78;98162.59;1730898;82;20182;-76
2021/08/20 08:34:13;;;;;;;;;;;;;;;21.19;65.79;98162.23;1730717;83;20194;-76
2021/08/20 08:36:39;;;;;;;;;;;;;;;21.28;66.57;98159.42;1731020;82;20179;-79
2021/08/20 08:39:05;;;;;;;;;;;;;;;21.49;65.75;98159.26;1731028;83;20159;-78
2021/08/20 08:41:33;;;;;;;;;;;;;;;21.71;66.40;98160.13;1731116;82;21087;-79
2021/08/20 08:43:59;;;;;;;;;;;;;;;21.88;65.53;98157.09;1709751;83;20168;-76
2021/08/20 08:46:26;;;;;;;;;;;;;;;22.13;65.56;98155.06;1731051;83;20168;-78
2021/08/20 08:48:52;;;;;;;;;;;;;;;22.38;60.67;98156.28;1710131;82;20541;-79
2021/08/20 08:51:19;;;;;;;;;;;;;;;22.42;59.92;98159.38;1730949;83;20144;-76
2021/08/20 08:53:49;;;;;;;;;;;;;;;22.62;60.73;98153.38;1730291;83;20983;-75
2021/08/20 08:56:19;;;;;;;;;;;;;;;22.89;62.00;98156.43;1730964;82;20408;-78
2021/08/20 08:58:45;;;;;;;;;;;;;;;22.92;58.59;98156.53;1736385;82;20131;-76
2021/08/20 09:01:30;;;;;;;;;;;;;;;23.16;57.78;98157.47;1740614;82;20140;-76
2021/08/20 09:04:21;;;;;;;;;;;;;;;23.76;59.05;98157.48;1739110;81;20140;-79
2021/08/20 09:06:56;;;;;;;;;;;;;;;24.19;60.53;98151.43;1739097;82;21156;-79
2021/08/20 09:09:23;;;;;;;;;;;;;;;24.19;56.13;98154.20;1738812;82;20171;-78
2021/08/20 09:11:52;;;;;;;;;;;;;;;24.44;58.98;98152.73;1739082;82;20140;-78
2021/08/20 09:14:18;;;;;;;;;;;;;;;24.48;55.98;98153.58;1738348;81;20136;-76
2021/08/20 09:16:45;;;;;;;;;;;;;;;24.48;53.26;98156.34;1738983;82;20147;-79
2021/08/20 09:19:19;;;;;;;;;;;;;;;24.60;56.01;98143.48;1738869;82;21755;-79
2021/08/20 09:21:53;;;;;;;;;;;;;;;25.20;57.60;98145.88;1738967;81;20091;-76
2021/08/20 09:24:32;;;;;;;;;;;;;;;24.99;51.19;98137.22;1738402;82;20148;-76
2021/08/20 09:27:21;;;;;;;;;;;;;;;25.29;50.19;98142.28;1737676;81;20135;-79
2021/08/20 09:30:11;;;;;;;;;;;;;;;25.44;50.17;98139.10;1738799;81;20160;-77
2021/08/20 09:32:45;;;;;;;;;;;;;;;25.65;48.30;98140.00;1739011;82;21022;-79
2021/08/20 09:35:11;;;;;;;;;;;;;;;26.05;48.70;98139.31;1738783;81;20131;-76
2021/08/20 09:37:37;;;;;;;;;;;;;;;25.84;46.36;98136.30;1739163;81;20261;-76
2021/08/20 09:40:07;;;;;;;;;;;;;;;26.36;50.06;98131.72;1738915;82;20174;-81
2021/08/20 09:42:32;;;;;;;;;;;;;;;26.40;46.48;98131.98;1739300;81;20182;-81
2021/08/20 09:45:17;;;;;;;;;;;;;;;26.84;46.96;98128.44;1738789;82;21226;-81
2021/08/20 09:47:43;;;;;;;;;;;;;;;26.77;45.12;98128.37;1738970;82;20175;-76
2021/08/20 09:50:09;;;;;;;;;;;;;;;27.53;45.00;98119.39;1738906;82;21176;-76
2021/08/20 09:52:35;;;;;;;;;;;;;;;27.97;40.78;98118.41;1718105;82;20237;-76
2021/08/20 09:55:01;;;;;;;;;;;;;;;28.48;43.79;98119.56;1738900;81;20237;-76
2021/08/20 09:57:27;;;;;;;;;;;;;;;28.95;43.08;98117.61;1739169;81;21117;-79
2021/08/20 09:59:54;;;;;;;;;;;;;;;29.83;40.32;98113.66;1738977;81;20136;-76
2021/08/20 10:02:20;;;;;;;;;;;;;;;29.88;40.80;98113.22;1739061;81;20163;-77
2021/08/20 10:04:46;;;;;;;;;;;;;;;29.62;39.43;98106.94;1717846;82;20120;-76
2021/08/20 10:07:14;;;;;;;;;;;;;;;28.10;41.96;98100.14;1739159;82;20201;-78
2021/08/20 10:09:40;;;;;;;;;;;;;;;27.25;43.32;98100.53;1738771;81;21025;-76
2021/08/20 10:12:06;;;;;;;;;;;;;;;26.74;44.26;98099.14;1738946;81;20213;-76
2021/08/20 10:14:32;;;;;;;;;;;;;;;26.57;45.74;98105.55;1738759;82;20470;-76
2021/08/20 10:16:58;;;;;;;;;;;;;;;26.21;46.60;98104.39;1738945;82;20741;-79
2021/08/20 10:19:24;;;;;;;;;;;;;;;25.95;46.45;98108.66;1738714;82;20241;-76
2021/08/20 10:21:49;;;;;;;;;;;;;;;25.68;48.48;98102.36;1739187;81;20953;-76
2021/08/20 10:24:15;;;;;;;;;;;;;;;25.16;48.78;98109.00;1738806;81;20162;-79
2021/08/20 10:26:49;;;;;;;;;;;;;;;24.96;47.78;98103.33;1739022;82;20221;-79
2021/08/20 10:29:15;;;;;;;;;;;;;;;24.85;47.82;98097.59;1739096;82;20514;-76
2021/08/20 10:31:41;;;;;;;;;;;;;;;24.66;47.96;98101.84;1718442;82;20170;-76
2021/08/20 10:34:33;;;;;;;;;;;;;;;24.47;47.86;98091.64;1738943;82;21041;-76
2021/08/20 10:37:16;;;;;;;;;;;;;;;24.48;48.10;98091.86;1739047;81;20416;-79
2021/08/20 10:39:47;;;;;;;;;;;;;;;24.52;49.04;98084.98;1738821;82;20195;-76
2021/08/20 10:42:15;;;;;;;;;;;;;;;24.75;49.98;98085.77;1739287;81;20135;-79
2021/08/20 10:44:48;;;;;;;;;;;;;;;24.74;48.75;98086.35;1738731;81;20123;-76
2021/08/20 10:47:24;;;;;;;;;;;;;;;24.72;49.31;98085.13;1739184;81;21026;-79
2021/08/20 10:49:50;;;;;;;;;;;;;;;24.77;49.25;98087.57;1736488;82;20203;-76
2021/08/20 10:52:29;;;;;;;;;;;;;;;24.75;49.83;98085.77;1739305;82;20162;-79
2021/08/20 10:54:58;;;;;;;;;;;;;;;24.85;50.50;98083.74;1739041;82;20135;-79
2021/08/20 10:57:42;;;;;;;;;;;;;;;24.86;49.06;98083.95;1739306;81;20147;-79
2021/08/20 11:00:25;;;;;;;;;;;;;;;24.97;49.37;98089.09;1732624;82;21154;-76
2021/08/20 11:03:01;;;;;;;;;;;;;;;24.92;48.42;98092.76;1731045;83;20132;-76
2021/08/20 11:05:47;;;;;;;;;;;;;;;24.55;49.72;98090.59;1731022;83;20412;-79
2021/08/20 11:08:28;;;;;;;;;;;;;;;24.61;50.66;98092.45;1730944;83;20702;-76
2021/08/20 11:10:55;;;;;;;;;;;;;;;24.69;50.42;98094.97;1731000;82;20147;-79
2021/08/20 11:13:21;;;;;;;;;;;;;;;24.74;51.33;98090.51;1730941;83;21763;-76
2021/08/20 11:15:48;;;;;;;;;;;;;;;24.79;51.35;98092.17;1730784;83;20781;-76
2021/08/20 11:18:14;;;;;;;;;;;;;;;24.73;50.70;98090.30;1731034;83;20132;-79
2021/08/20 11:20:46;;;;;;;;;;;;;;;24.69;51.54;98093.58;1730961;83;20154;-79
2021/08/20 11:23:17;;;;;;;;;;;;;;;24.66;51.57;98090.17;1731062;82;20163;-79
2021/08/20 11:25:57;;;;;;;;;;;;;;;24.62;51.43;98091.30;1711041;83;21059;-76
2021/08/20 11:28:26;;;;;;;;;;;;;;;24.56;51.49;98090.01;1730812;83;20132;-79
2021/08/20 11:31:03;;;;;;;;;;;;;;;24.37;51.18;98091.67;1730817;83;20160;-79
2021/08/20 11:33:42;;;;;;;;;;;;;;;24.29;51.43;98089.92;1730987;83;20125;-79
2021/08/20 11:36:13;;;;;;;;;;;;;;;24.14;50.56;98093.00;1730773;83;20140;-79
2021/08/20 11:38:42;;;;;;;;;;;;;;;24.08;49.84;98090.31;1731093;83;21193;-79
2021/08/20 11:41:24;;;;;;;;;;;;;;;24.06;50.16;98090.47;1730669;83;20104;-76
2021/08/20 11:43:48;;;;;;;;;;;;;;;24.23;51.00;98091.97;1728681;82;20137;-76
2021/08/20 11:46:13;;;;;;;;;;;;;;;24.44;51.14;98084.88;1731007;82;20157;-79
2021/08/20 11:48:47;;;;;;;;;;;;;;;24.72;50.75;98087.91;1730906;83;20174;-79
2021/08/20 11:51:14;;;;;;;;;;;;;;;24.97;46.57;98079.39;1730886;82;21951;-79
2021/08/20 11:53:43;;;;;;;;;;;;;;;25.06;47.98;98081.13;1730826;83;20139;-80
2021/08/20 11:56:11;;;;;;;;;;;;;;;25.27;47.98;98080.03;1730678;83;20132;-75
2021/08/20 11:58:37;;;;;;;;;;;;;;;25.50;48.42;98079.36;1731011;82;20423;-76
2021/08/20 12:01:03;;;;;;;;;;;;;;;25.63;47.79;98081.88;1715118;83;20210;-76
2021/08/20 12:03:29;;;;;;;;;;;;;;;25.77;48.49;98080.70;1733756;82;21899;-76
2021/08/20 12:06:09;;;;;;;;;;;;;;;25.93;46.50;98082.67;1749081;82;20737;-76
2021/08/20 12:08:34;;;;;;;;;;;;;;;25.83;46.38;98077.81;1748744;81;20131;-76
2021/08/20 12:11:00;;;;;;;;;;;;;;;25.79;47.24;98081.91;1749205;81;20146;-79
2021/08/20 12:13:27;;;;;;;;;;;;;;;25.83;46.52;98077.22;1745547;81;20162;-78
2021/08/20 12:15:53;;;;;;;;;;;;;;;25.84;47.00;98077.42;1739023;82;21139;-79
2021/08/20 12:18:20;;;;;;;;;;;;;;;25.85;46.61;98075.45;1739097;81;20225;-79
2021/08/20 12:20:46;;;;;;;;;;;;;;;25.75;46.83;98074.74;1738952;82;20124;-79
2021/08/20 12:23:12;;;;;;;;;;;;;;;25.71;45.14;98082.20;1739030;81;20182;-79
2021/08/20 12:25:40;;;;;;;;;;;;;;;25.53;46.22;98078.59;1738958;82;20217;-76
2021/08/20 12:28:12;;;;;;;;;;;;;;;25.53;45.87;98075.02;1738958;82;21305;-79
2021/08/20 12:30:38;;;;;;;;;;;;;;;25.42;45.87;98080.44;1738604;82;20207;-76
2021/08/20 12:33:04;;;;;;;;;;;;;;;25.44;47.10;98079.47;1717793;82;20157;-78
2021/08/20 12:35:30;;;;;;;;;;;;;;;25.35;46.07;98080.34;1739098;82;20134;-79
2021/08/20 12:38:14;;;;;;;;;;;;;;;25.28;46.58;98074.11;1694420;82;20147;-76
2021/08/20 12:40:48;;;;;;;;;;;;;;;25.14;46.04;98074.52;1738785;82;21786;-79
2021/08/20 12:43:34;;;;;;;;;;;;;;;25.01;47.29;98073.30;1738740;81;20187;-76
2021/08/20 12:46:13;;;;;;;;;;;;;;;24.90;48.38;98072.35;1738990;82;20164;-79
2021/08/20 12:48:54;;;;;;;;;;;;;;;24.69;48.22;98076.16;1738924;81;20479;-76